Time;durP1;ratioP1;P1;durP2;ratioP2;P2;SDS_P1;SDS_P2;PMS_P1;PMS_P2;Temp;Humidity;BMP_temperature;BMP_pressure;BME280_temperature;BME280_humidity;BME280_pressure;Samples;Min_cycle;Max_cycle;Signal;HPM_P1;HPM_P2
2022/01/28 00:02:00;;;;;;;37.28;19.58;;;2.00;83.70;;;;;;5138617;27;20106;-34
2022/01/28 00:04:27;;;;;;;40.60;19.45;;;2.00;83.70;;;;;;5138101;27;20057;-43
2022/01/28 00:06:52;;;;;;;37.33;20.50;;;2.00;83.70;;;;;;5138429;27;20023;-34
2022/01/28 00:09:18;;;;;;;38.72;19.80;;;2.00;83.70;;;;;;5138126;27;20046;-33
2022/01/28 00:11:44;;;;;;;34.95;18.10;;;2.00;83.80;;;;;;5138186;27;20323;-43
2022/01/28 00:14:21;;;;;;;36.35;19.38;;;2.00;83.80;;;;;;5138603;27;20039;-43
2022/01/28 00:41:12;;;;;;;37.90;18.70;;;2.10;83.70;;;;;;5134755;27;20043;-36
2022/01/28 00:43:37;;;;;;;35.40;18.10;;;2.10;83.60;;;;;;5138271;27;20106;-43
2022/01/28 00:46:03;;;;;;;33.97;18.02;;;2.20;83.40;;;;;;5137321;27;20161;-43
2022/01/28 00:48:29;;;;;;;38.47;18.58;;;2.10;83.30;;;;;;5137825;27;20027;-43
2022/01/28 00:50:55;;;;;;;34.67;18.40;;;2.20;83.30;;;;;;5137476;27;20039;-43
2022/01/28 00:53:20;;;;;;;32.08;17.92;;;2.20;83.40;;;;;;5137735;27;20031;-35
2022/01/28 00:55:46;;;;;;;31.83;17.35;;;2.20;83.30;;;;;;5137618;27;20415;-34
2022/01/28 00:58:12;;;;;;;34.80;17.85;;;2.20;83.20;;;;;;5137845;27;20415;-34
2022/01/28 01:00:38;;;;;;;33.58;17.60;;;2.20;83.20;;;;;;5137453;27;20037;-43
2022/01/28 01:03:03;;;;;;;36.17;18.08;;;2.20;83.10;;;;;;5137742;27;20019;-37
2022/01/28 01:05:34;;;;;;;33.10;17.55;;;2.20;83.00;;;;;;5137285;27;20031;-33
2022/01/28 01:08:00;;;;;;;32.40;17.60;;;2.20;83.00;;;;;;5137289;27;20054;-34
2022/01/28 01:10:27;;;;;;;34.10;17.77;;;2.20;83.00;;;;;;5137279;27;20045;-34
2022/01/28 01:12:53;;;;;;;35.65;17.58;;;2.20;82.90;;;;;;5137278;27;20031;-43
2022/01/28 01:15:23;;;;;;;37.63;18.83;;;2.20;83.10;;;;;;5137382;27;20300;-34
2022/01/28 01:18:05;;;;;;;32.70;18.52;;;2.20;83.00;;;;;;5137475;27;20368;-33
2022/01/28 01:20:54;;;;;;;34.15;17.35;;;2.20;83.10;;;;;;5136882;27;20027;-33
2022/01/28 01:23:26;;;;;;;34.70;17.83;;;2.20;83.00;;;;;;5137189;27;20023;-43
2022/01/28 01:28:34;;;;;;;33.78;17.95;;;2.20;83.20;;;;;;5137482;27;20079;-43
2022/01/28 01:31:03;;;;;;;34.72;18.08;;;2.20;83.20;;;;;;5136830;27;20083;-34
2022/01/28 01:33:32;;;;;;;33.92;17.77;;;2.20;83.30;;;;;;5137226;27;20039;-33
2022/01/28 01:36:02;;;;;;;36.72;18.30;;;2.20;83.50;;;;;;5137049;27;20438;-43
2022/01/28 01:38:32;;;;;;;38.93;20.37;;;2.20;83.50;;;;;;5136948;28;20034;-43
2022/01/28 01:41:01;;;;;;;35.53;17.50;;;2.20;83.80;;;;;;5137040;28;20054;-33
2022/01/28 01:54:06;;;;;;;33.70;18.17;;;2.30;84.30;;;;;;5137050;28;20087;-33
2022/01/28 01:56:33;;;;;;;34.22;17.17;;;2.30;84.20;;;;;;5136933;28;20110;-42
2022/01/28 01:58:59;;;;;;;30.48;16.55;;;2.30;84.20;;;;;;5136669;28;20048;-43
2022/01/28 02:01:25;;;;;;;29.95;17.60;;;2.30;84.30;;;;;;5138095;27;20484;-34
2022/01/28 02:03:51;;;;;;;36.97;17.52;;;2.30;84.20;;;;;;5141381;27;20072;-43
2022/01/28 02:06:23;;;;;;;33.03;17.52;;;2.30;84.30;;;;;;5140865;27;20028;-43
2022/01/28 02:08:49;;;;;;;30.30;16.55;;;2.30;84.30;;;;;;5140701;27;20118;-43
2022/01/28 02:11:14;;;;;;;33.83;16.50;;;2.30;84.30;;;;;;5140603;27;20483;-35
2022/01/28 02:13:41;;;;;;;31.75;17.40;;;2.30;84.30;;;;;;5140977;27;20094;-43
2022/01/28 02:16:07;;;;;;;32.35;17.25;;;2.30;84.40;;;;;;5140518;27;20039;-33
2022/01/28 02:18:33;;;;;;;34.03;17.48;;;2.30;84.50;;;;;;5140970;27;20053;-42
2022/01/28 02:21:08;;;;;;;31.23;16.75;;;2.30;84.60;;;;;;5140337;27;20031;-43
2022/01/28 02:23:35;;;;;;;33.30;16.83;;;2.30;84.80;;;;;;5140856;27;20088;-33
2022/01/28 02:26:02;;;;;;;35.28;18.08;;;2.30;84.90;;;;;;5140507;27;20050;-35
2022/01/28 02:28:32;;;;;;;33.67;17.17;;;2.30;84.90;;;;;;5140823;27;20034;-43
2022/01/28 02:30:59;;;;;;;34.67;17.60;;;2.30;85.10;;;;;;5140541;27;20033;-43
2022/01/28 02:33:26;;;;;;;32.83;17.20;;;2.30;85.30;;;;;;5140472;27;20035;-43
2022/01/28 02:35:52;;;;;;;34.67;18.17;;;2.30;85.30;;;;;;5140100;27;20042;-43
2022/01/28 02:38:21;;;;;;;33.20;17.50;;;2.30;85.60;;;;;;5140659;27;20035;-43
2022/01/28 02:40:54;;;;;;;36.38;17.83;;;2.30;85.90;;;;;;5140196;27;20437;-43
2022/01/28 02:45:50;;;;;;;32.45;17.33;;;2.30;86.40;;;;;;5140331;27;20031;-43
2022/01/28 02:48:23;;;;;;;35.03;17.98;;;2.30;86.40;;;;;;5140300;27;20098;-35
2022/01/28 02:53:26;;;;;;;32.55;16.73;;;2.30;86.70;;;;;;5140101;27;20104;-33
2022/01/28 02:56:01;;;;;;;31.63;17.50;;;2.20;86.80;;;;;;5139905;27;20035;-33
2022/01/28 02:58:27;;;;;;;29.73;15.73;;;2.20;87.10;;;;;;5140238;27;20027;-43
2022/01/28 03:00:55;;;;;;;33.42;15.95;;;2.20;87.40;;;;;;5139812;27;20327;-36
2022/01/28 03:03:23;;;;;;;35.72;18.80;;;2.20;87.70;;;;;;5139937;27;20075;-34
2022/01/28 03:05:52;;;;;;;37.47;18.38;;;2.20;87.80;;;;;;5139772;27;20535;-44
2022/01/28 03:08:22;;;;;;;39.30;18.85;;;2.20;88.00;;;;;;5139590;27;20074;-34
2022/01/28 03:16:32;;;;;;;45.78;20.23;;;2.10;88.00;;;;;;5139671;27;20042;-43
2022/01/28 03:19:15;;;;;;;42.35;19.73;;;2.10;88.30;;;;;;5139975;27;20081;-44
2022/01/28 03:21:44;;;;;;;37.20;19.33;;;2.10;88.50;;;;;;5139081;27;20050;-34
2022/01/28 03:24:12;;;;;;;34.72;17.95;;;2.10;88.40;;;;;;5139590;27;20031;-43
2022/01/28 03:26:38;;;;;;;38.22;19.73;;;2.10;88.40;;;;;;5139159;27;20111;-34
2022/01/28 03:29:04;;;;;;;36.00;19.48;;;2.10;88.40;;;;;;5139818;27;20031;-41
2022/01/28 03:31:30;;;;;;;40.67;20.73;;;2.10;88.40;;;;;;5139083;27;20031;-34
2022/01/28 03:33:56;;;;;;;41.67;20.67;;;2.10;88.40;;;;;;5139518;27;20323;-43
2022/01/28 03:36:23;;;;;;;40.78;20.55;;;2.10;88.50;;;;;;5139137;27;20042;-34
2022/01/28 03:38:49;;;;;;;43.72;20.52;;;2.10;88.50;;;;;;5139438;27;20031;-44
2022/01/28 03:41:17;;;;;;;39.33;21.17;;;2.10;88.30;;;;;;5139120;27;20084;-35
2022/01/28 03:43:47;;;;;;;48.33;22.20;;;2.10;88.20;;;;;;5139347;27;20034;-34
2022/01/28 03:46:13;;;;;;;37.40;20.17;;;2.10;88.10;;;;;;5138995;27;20031;-43
2022/01/28 03:48:39;;;;;;;37.25;20.45;;;2.10;88.10;;;;;;5139316;27;20392;-34
2022/01/28 03:51:05;;;;;;;41.65;20.95;;;2.10;88.20;;;;;;5138515;27;20108;-35
2022/01/28 03:53:31;;;;;;;44.67;20.75;;;2.10;88.20;;;;;;5138955;27;20069;-34
2022/01/28 03:55:57;;;;;;;52.42;24.08;;;2.20;88.30;;;;;;5138948;27;20035;-38
2022/01/28 03:58:26;;;;;;;47.20;22.25;;;2.20;88.40;;;;;;5139015;27;20063;-43
2022/01/28 04:00:54;;;;;;;41.58;22.27;;;2.20;88.10;;;;;;5138267;27;20031;-34
2022/01/28 04:11:32;;;;;;;39.55;18.10;;;2.20;87.60;;;;;;5138589;27;19967;-43
2022/01/28 04:14:09;;;;;;;34.47;18.85;;;2.20;87.80;;;;;;5138755;27;20031;-34
2022/01/28 04:19:20;;;;;;;40.50;21.33;;;2.20;87.80;;;;;;5138388;27;20077;-43
2022/01/28 04:21:46;;;;;;;36.33;20.00;;;2.20;87.80;;;;;;5138040;27;20031;-43
2022/01/28 04:24:12;;;;;;;44.58;22.38;;;2.20;87.90;;;;;;5137591;27;20019;-44
2022/01/28 04:26:38;;;;;;;39.53;20.38;;;2.20;88.00;;;;;;5138315;27;20103;-42
2022/01/28 04:29:04;;;;;;;41.95;20.13;;;2.20;88.60;;;;;;5138563;27;20072;-35
2022/01/28 04:31:30;;;;;;;41.58;20.02;;;2.20;88.10;;;;;;5138011;27;20035;-34
2022/01/28 04:33:56;;;;;;;38.40;21.02;;;2.20;88.10;;;;;;5137684;27;20114;-43
2022/01/28 04:36:25;;;;;;;39.00;20.10;;;2.20;88.00;;;;;;5137996;27;20415;-37
2022/01/28 04:38:59;;;;;;;40.05;20.98;;;2.20;88.10;;;;;;5138326;27;20031;-43
2022/01/28 04:41:39;;;;;;;39.40;19.58;;;2.30;88.20;;;;;;5137722;27;20031;-43
2022/01/28 04:44:14;;;;;;;41.38;20.80;;;2.30;88.00;;;;;;5137780;27;20064;-44
2022/01/28 04:47:00;;;;;;;40.30;20.45;;;2.30;87.80;;;;;;5137765;27;20023;-34
2022/01/28 05:02:27;;;;;;;33.75;18.08;;;2.20;87.80;;;;;;5137744;27;20091;-41
2022/01/28 05:12:57;;;;;;;37.30;19.20;;;2.20;87.50;;;;;;5137440;27;20357;-35
2022/01/28 05:28:48;;;;;;;42.30;18.92;;;2.20;87.60;;;;;;5137058;27;20419;-35
2022/01/28 05:31:16;;;;;;;36.00;18.67;;;2.20;88.00;;;;;;5135865;27;20031;-35
2022/01/28 05:33:42;;;;;;;42.05;20.83;;;2.20;88.10;;;;;;5136988;27;20034;-35
2022/01/28 05:36:08;;;;;;;36.85;19.08;;;2.20;88.30;;;;;;5135864;27;20035;-45
2022/01/28 05:38:33;;;;;;;35.90;18.15;;;2.10;88.30;;;;;;5137097;27;20039;-34
2022/01/28 05:40:59;;;;;;;34.20;19.08;;;2.10;88.30;;;;;;5136416;28;20035;-45
2022/01/28 05:43:25;;;;;;;40.58;19.60;;;2.10;88.40;;;;;;5136901;28;20055;-44
2022/01/28 05:45:51;;;;;;;38.45;19.33;;;2.10;88.50;;;;;;5136424;28;20042;-44
2022/01/28 05:48:18;;;;;;;43.20;20.55;;;2.10;88.40;;;;;;5137082;28;20034;-44
2022/01/28 05:50:44;;;;;;;45.35;20.10;;;2.10;88.50;;;;;;5136824;28;20035;-34
2022/01/28 05:53:10;;;;;;;39.38;20.20;;;2.10;88.60;;;;;;5136989;28;20024;-45
2022/01/28 05:55:36;;;;;;;45.60;20.30;;;2.10;88.50;;;;;;5136513;28;20062;-35
2022/01/28 05:58:02;;;;;;;41.10;20.30;;;2.10;88.30;;;;;;5136770;28;20387;-44
2022/01/28 06:00:28;;;;;;;36.65;20.30;;;2.20;88.50;;;;;;5136463;28;20041;-44
2022/01/28 06:02:53;;;;;;;39.58;20.98;;;2.20;88.30;;;;;;5136701;28;20372;-36
2022/01/28 06:05:19;;;;;;;41.42;20.65;;;2.20;88.50;;;;;;5136607;28;20038;-44
2022/01/28 06:07:44;;;;;;;41.45;20.52;;;2.20;88.30;;;;;;5136344;28;20044;-36
2022/01/28 06:10:12;;;;;;;47.85;21.52;;;2.20;88.30;;;;;;5136252;28;20035;-36
2022/01/28 06:12:42;;;;;;;53.90;24.40;;;2.20;87.90;;;;;;5136430;28;20050;-35
2022/01/28 06:15:09;;;;;;;55.90;23.67;;;2.20;88.00;;;;;;5136437;28;20031;-35
2022/01/28 06:17:35;;;;;;;51.33;22.40;;;2.20;88.00;;;;;;5136626;28;20031;-44
2022/01/28 06:20:02;;;;;;;52.58;24.35;;;2.20;88.10;;;;;;5136036;28;20462;-44
2022/01/28 06:22:28;;;;;;;52.88;22.45;;;2.30;88.30;;;;;;5136590;27;20023;-44
2022/01/28 06:24:53;;;;;;;53.60;21.92;;;2.30;87.90;;;;;;5141394;27;20019;-44
2022/01/28 06:27:19;;;;;;;42.05;21.05;;;2.30;87.80;;;;;;5136456;28;20286;-44
2022/01/28 06:29:45;;;;;;;43.65;20.88;;;2.30;87.80;;;;;;5135998;28;20023;-36
2022/01/28 06:32:11;;;;;;;42.20;21.77;;;2.30;87.70;;;;;;5115912;28;20028;-44
2022/01/28 06:34:38;;;;;;;43.60;21.10;;;2.40;87.90;;;;;;5114743;28;20051;-35
2022/01/28 06:37:05;;;;;;;46.72;22.65;;;2.40;87.90;;;;;;5114852;28;20027;-44
2022/01/28 06:39:32;;;;;;;51.05;23.38;;;2.40;88.00;;;;;;5115255;28;20035;-35
2022/01/28 06:41:59;;;;;;;43.97;22.75;;;2.40;87.50;;;;;;5115661;28;20020;-44
2022/01/28 06:44:25;;;;;;;46.97;22.60;;;2.50;87.20;;;;;;5115190;28;20024;-34
2022/01/28 06:46:52;;;;;;;43.95;21.27;;;2.50;87.50;;;;;;5115611;28;20067;-44
2022/01/28 06:49:18;;;;;;;43.10;22.58;;;2.50;86.80;;;;;;5119184;28;20062;-44
2022/01/28 06:51:43;;;;;;;42.25;21.58;;;2.50;86.80;;;;;;5119269;28;20034;-44
2022/01/28 06:54:09;;;;;;;41.95;21.80;;;2.50;86.60;;;;;;5119009;28;20027;-44
2022/01/28 06:56:35;;;;;;;62.55;23.70;;;2.50;86.40;;;;;;5118834;28;20404;-44
2022/01/28 06:59:00;;;;;;;42.85;21.35;;;2.60;86.90;;;;;;5119576;28;20165;-44
2022/01/28 07:01:26;;;;;;;42.58;20.60;;;2.50;87.00;;;;;;5118596;28;20079;-44
2022/01/28 07:03:52;;;;;;;42.40;21.73;;;2.60;87.00;;;;;;5119164;28;20051;-44
2022/01/28 07:06:18;;;;;;;40.40;21.63;;;2.60;87.00;;;;;;5118712;28;20038;-45
2022/01/28 07:08:44;;;;;;;40.75;21.00;;;2.60;86.90;;;;;;5118521;28;20496;-38
2022/01/28 07:11:10;;;;;;;50.97;22.92;;;2.70;87.10;;;;;;5118880;28;20031;-35
2022/01/28 07:13:35;;;;;;;45.65;21.67;;;2.70;86.90;;;;;;5118687;28;20027;-44
2022/01/28 07:16:01;;;;;;;46.95;21.40;;;2.80;86.80;;;;;;5118422;28;20420;-44
2022/01/28 07:18:28;;;;;;;47.70;22.60;;;2.80;86.80;;;;;;5118897;28;20118;-44
2022/01/28 07:20:54;;;;;;;46.13;21.65;;;2.80;86.80;;;;;;5118897;28;20032;-35
2022/01/28 07:23:20;;;;;;;43.20;21.88;;;2.90;86.80;;;;;;5118876;28;20140;-44
2022/01/28 07:25:46;;;;;;;46.03;22.45;;;3.00;86.60;;;;;;5118250;28;20031;-44
2022/01/28 07:28:11;;;;;;;41.95;21.88;;;3.00;86.60;;;;;;5118843;28;20028;-35
2022/01/28 07:30:37;;;;;;;42.38;22.23;;;3.00;86.40;;;;;;5118377;28;20107;-44
2022/01/28 07:33:06;;;;;;;49.38;23.35;;;3.10;86.50;;;;;;5118320;28;20074;-44
2022/01/28 07:35:32;;;;;;;44.53;22.08;;;3.10;86.10;;;;;;5117949;28;20049;-35
2022/01/28 07:37:58;;;;;;;48.78;23.13;;;3.20;86.30;;;;;;5132108;27;20019;-34
2022/01/28 07:40:23;;;;;;;40.63;23.23;;;3.20;86.00;;;;;;5150389;27;20054;-35
2022/01/28 07:42:49;;;;;;;41.22;22.45;;;3.20;85.70;;;;;;5159743;27;20034;-44
2022/01/28 07:45:15;;;;;;;39.35;21.85;;;3.20;85.60;;;;;;5159206;27;20384;-44
2022/01/28 07:47:42;;;;;;;44.97;22.45;;;3.30;85.40;;;;;;5159490;27;20110;-34
2022/01/28 07:50:09;;;;;;;42.15;22.75;;;3.30;85.20;;;;;;5159063;27;20030;-34
2022/01/28 07:52:36;;;;;;;48.67;24.55;;;3.30;84.60;;;;;;5159264;27;20030;-44
2022/01/28 07:55:02;;;;;;;40.70;21.98;;;3.40;84.60;;;;;;5159090;27;20251;-35
2022/01/28 07:57:29;;;;;;;44.58;21.15;;;3.40;84.20;;;;;;5159547;27;20087;-44
2022/01/28 07:59:55;;;;;;;37.15;21.23;;;3.40;84.40;;;;;;5158372;27;20494;-43
2022/01/28 08:02:21;;;;;;;43.72;23.73;;;3.40;83.80;;;;;;5158945;27;20023;-34
2022/01/28 08:04:46;;;;;;;45.88;21.95;;;3.40;84.20;;;;;;5158369;27;20027;-44
2022/01/28 08:07:12;;;;;;;36.72;20.38;;;3.50;83.90;;;;;;5158769;27;20153;-44
2022/01/28 08:09:38;;;;;;;39.83;20.40;;;3.50;83.50;;;;;;5158591;27;20035;-44
2022/01/28 08:12:04;;;;;;;38.33;20.08;;;3.50;83.10;;;;;;5151008;27;20031;-44
2022/01/28 08:14:31;;;;;;;44.30;23.42;;;3.50;82.80;;;;;;5137565;27;20112;-44
2022/01/28 08:16:57;;;;;;;41.40;21.17;;;3.50;83.00;;;;;;5138027;27;20031;-34
2022/01/28 08:19:23;;;;;;;40.03;20.83;;;3.50;82.40;;;;;;5137223;27;20440;-34
2022/01/28 08:21:48;;;;;;;40.70;20.67;;;3.50;82.70;;;;;;5137656;27;20031;-34
2022/01/28 08:24:14;;;;;;;37.88;21.13;;;3.50;83.10;;;;;;5137542;27;20054;-34
2022/01/28 08:26:40;;;;;;;34.53;19.45;;;3.60;83.00;;;;;;5137267;27;20033;-34
2022/01/28 08:29:06;;;;;;;36.55;20.10;;;3.60;82.00;;;;;;5138174;27;20307;-34
2022/01/28 08:31:33;;;;;;;35.58;20.00;;;3.60;82.20;;;;;;5137433;27;20344;-35
2022/01/28 08:33:59;;;;;;;39.15;20.55;;;3.60;82.20;;;;;;5137901;27;20031;-43
2022/01/28 08:36:25;;;;;;;42.28;21.88;;;3.60;82.10;;;;;;5137318;27;20039;-35
2022/01/28 08:38:54;;;;;;;35.90;21.33;;;3.60;82.10;;;;;;5138274;27;20039;-44
2022/01/28 08:41:20;;;;;;;41.65;20.67;;;3.60;81.70;;;;;;5137038;27;20041;-43
2022/01/28 08:43:46;;;;;;;45.67;21.08;;;3.60;81.90;;;;;;5137659;27;20039;-34
2022/01/28 08:46:12;;;;;;;45.70;22.05;;;3.70;82.30;;;;;;5136533;27;20146;-44
2022/01/28 08:48:38;;;;;;;46.17;23.17;;;3.70;82.30;;;;;;5137492;27;20031;-44
2022/01/28 08:51:03;;;;;;;38.65;21.80;;;3.70;82.60;;;;;;5141266;27;20074;-40
2022/01/28 08:53:29;;;;;;;39.00;22.02;;;3.80;81.70;;;;;;5144412;27;20417;-45
2022/01/28 08:55:55;;;;;;;45.70;23.13;;;3.80;81.60;;;;;;5157996;27;20031;-43
2022/01/28 08:58:21;;;;;;;39.92;21.52;;;3.90;81.50;;;;;;5158157;27;20035;-34
2022/01/28 09:00:48;;;;;;;45.88;21.83;;;3.90;81.40;;;;;;5157551;27;20034;-33
2022/01/28 09:03:18;;;;;;;38.95;22.25;;;3.90;81.30;;;;;;5158006;27;20379;-34
2022/01/28 09:05:45;;;;;;;37.78;21.05;;;3.90;81.20;;;;;;5157784;27;20038;-36
2022/01/28 09:08:11;;;;;;;47.40;24.92;;;3.90;81.50;;;;;;5157523;27;20038;-34
2022/01/28 09:10:42;;;;;;;39.63;21.55;;;3.90;81.80;;;;;;5157672;27;20319;-34
2022/01/28 09:15:40;;;;;;;43.55;22.33;;;3.90;81.80;;;;;;5157339;27;20414;-44
2022/01/28 09:18:07;;;;;;;41.85;23.98;;;3.90;82.00;;;;;;5157862;27;20030;-44
2022/01/28 09:20:34;;;;;;;47.13;25.42;;;3.90;81.60;;;;;;5157448;27;20022;-34
2022/01/28 09:23:00;;;;;;;42.33;23.00;;;3.80;81.90;;;;;;5157000;27;20027;-43
2022/01/28 09:25:26;;;;;;;47.60;24.27;;;3.80;82.50;;;;;;5148603;27;20027;-41
2022/01/28 09:27:52;;;;;;;42.90;23.75;;;3.80;82.80;;;;;;5144297;27;20023;-44
2022/01/28 09:30:18;;;;;;;50.33;24.75;;;3.80;83.30;;;;;;5154103;27;20062;-44
2022/01/28 09:32:43;;;;;;;41.40;22.65;;;3.90;83.70;;;;;;5157547;27;20400;-44
2022/01/28 09:35:09;;;;;;;41.92;22.80;;;3.90;83.80;;;;;;5157404;27;20054;-45
2022/01/28 09:37:35;;;;;;;41.75;23.65;;;3.90;83.70;;;;;;5157093;27;20026;-35
2022/01/28 09:40:03;;;;;;;45.95;23.95;;;3.90;83.50;;;;;;5157274;27;20106;-35
2022/01/28 09:42:31;;;;;;;41.95;23.17;;;3.90;82.80;;;;;;5157314;27;20058;-45
2022/01/28 09:44:59;;;;;;;37.60;21.38;;;3.90;82.70;;;;;;5157101;27;20125;-46
2022/01/28 09:47:25;;;;;;;40.72;23.05;;;3.90;82.80;;;;;;5157313;27;20051;-43
2022/01/28 09:49:51;;;;;;;40.25;22.67;;;3.90;82.90;;;;;;5156709;27;20308;-43
2022/01/28 09:52:18;;;;;;;43.72;23.92;;;3.90;83.10;;;;;;5157411;27;20030;-44
2022/01/28 09:54:46;;;;;;;39.05;22.08;;;3.80;83.60;;;;;;5157027;27;20096;-39
2022/01/28 09:57:16;;;;;;;37.85;21.40;;;3.90;84.00;;;;;;5157130;27;20037;-34
2022/01/28 09:59:42;;;;;;;40.53;22.03;;;3.90;84.30;;;;;;5138533;27;20023;-43
2022/01/28 10:02:08;;;;;;;39.55;21.55;;;4.00;84.40;;;;;;5156990;27;20042;-34
2022/01/28 10:04:34;;;;;;;40.30;22.52;;;4.10;83.80;;;;;;5156922;27;20058;-44
2022/01/28 10:07:12;;;;;;;35.15;19.95;;;4.10;83.20;;;;;;5157071;27;20060;-34
2022/01/28 10:09:57;;;;;;;40.00;22.35;;;4.20;82.90;;;;;;5156876;27;20375;-35
2022/01/28 10:12:39;;;;;;;42.17;23.25;;;4.20;82.60;;;;;;5157134;27;20046;-33
2022/01/28 10:15:17;;;;;;;46.88;22.30;;;4.20;82.50;;;;;;5156989;27;20438;-33
2022/01/28 10:17:53;;;;;;;40.28;21.63;;;4.20;82.20;;;;;;5157088;27;20050;-43
2022/01/28 10:20:20;;;;;;;38.13;21.50;;;4.30;82.20;;;;;;5156717;27;20045;-34
2022/01/28 10:22:55;;;;;;;43.90;21.77;;;4.30;82.50;;;;;;5158876;27;20023;-35
2022/01/28 10:25:26;;;;;;;43.28;22.90;;;4.30;82.30;;;;;;5152853;27;20313;-43
2022/01/28 10:28:11;;;;;;;38.78;22.67;;;4.40;82.90;;;;;;5140204;27;20427;-37
2022/01/28 10:30:39;;;;;;;40.58;21.25;;;4.50;82.70;;;;;;5119224;28;20115;-44
2022/01/28 10:33:16;;;;;;;40.80;22.55;;;4.60;82.80;;;;;;5120487;27;20047;-45
2022/01/28 10:35:54;;;;;;;41.78;22.65;;;4.70;82.50;;;;;;5156512;27;20031;-45
2022/01/28 10:38:34;;;;;;;37.80;20.85;;;4.80;82.60;;;;;;5161004;27;20030;-35
2022/01/28 10:41:07;;;;;;;36.50;20.35;;;4.90;82.30;;;;;;5151052;27;20092;-44
2022/01/28 10:43:47;;;;;;;39.17;22.17;;;5.00;81.40;;;;;;5151779;27;20109;-33
2022/01/28 10:46:24;;;;;;;54.95;25.67;;;5.00;80.70;;;;;;5160572;27;20030;-44
2022/01/28 10:48:58;;;;;;;52.20;23.83;;;5.10;80.00;;;;;;5160923;27;20019;-44
2022/01/28 10:51:44;;;;;;;52.78;24.77;;;5.10;79.90;;;;;;5160197;27;20390;-43
2022/01/28 10:54:13;;;;;;;47.00;23.63;;;5.10;80.20;;;;;;5160546;27;20045;-44
2022/01/28 10:56:55;;;;;;;50.85;24.73;;;5.20;79.90;;;;;;5160302;27;20034;-35
2022/01/28 10:59:32;;;;;;;39.67;22.83;;;5.30;79.20;;;;;;5160081;27;20034;-34
2022/01/28 11:01:58;;;;;;;37.72;21.92;;;5.30;79.10;;;;;;5160232;27;20031;-34
2022/01/28 11:04:24;;;;;;;41.53;20.48;;;5.30;79.20;;;;;;5160005;27;20037;-43
2022/01/28 11:06:52;;;;;;;35.70;19.42;;;5.40;78.80;;;;;;5159896;27;20054;-35
2022/01/28 11:09:20;;;;;;;37.47;19.38;;;5.30;78.00;;;;;;5138293;27;20074;-44
2022/01/28 11:11:46;;;;;;;35.08;18.95;;;5.40;78.20;;;;;;5139341;27;20114;-34
2022/01/28 11:14:12;;;;;;;33.08;18.98;;;5.40;78.00;;;;;;5138358;27;20027;-33
2022/01/28 11:16:38;;;;;;;30.33;17.75;;;5.40;77.60;;;;;;5120501;27;20027;-34
2022/01/28 11:19:05;;;;;;;33.50;18.90;;;5.40;76.90;;;;;;5138121;27;20034;-34
2022/01/28 11:21:48;;;;;;;32.53;17.85;;;5.50;77.30;;;;;;5138079;27;20046;-34
2022/01/28 11:24:39;;;;;;;31.83;18.00;;;5.50;77.10;;;;;;5138615;27;20020;-44
2022/01/28 11:27:14;;;;;;;30.65;17.90;;;5.50;76.20;;;;;;5138596;27;20046;-35
2022/01/28 11:29:40;;;;;;;29.45;16.50;;;5.50;76.00;;;;;;5138476;27;20019;-43
2022/01/28 11:32:13;;;;;;;29.90;16.52;;;5.50;75.90;;;;;;5138814;27;20114;-45
2022/01/28 11:34:57;;;;;;;32.45;16.90;;;5.50;76.30;;;;;;5137205;27;20039;-44
2022/01/28 11:37:26;;;;;;;30.73;16.58;;;5.50;75.90;;;;;;5138399;27;20035;-33
2022/01/28 11:39:51;;;;;;;32.95;16.88;;;5.50;76.00;;;;;;5138363;27;20027;-34
2022/01/28 11:42:23;;;;;;;31.00;16.35;;;5.50;75.60;;;;;;5138426;27;20057;-44
2022/01/28 11:44:59;;;;;;;25.52;15.32;;;5.50;75.90;;;;;;5138224;27;20033;-37
2022/01/28 11:47:30;;;;;;;39.67;19.80;;;5.60;75.70;;;;;;5138393;27;20031;-34
2022/01/28 11:49:57;;;;;;;26.60;15.27;;;5.60;75.80;;;;;;5138467;27;20027;-35
2022/01/28 11:52:27;;;;;;;30.15;17.02;;;5.60;75.20;;;;;;5138577;27;20319;-44
2022/01/28 11:54:53;;;;;;;27.85;16.23;;;5.70;75.30;;;;;;5137710;27;20027;-34
2022/01/28 11:57:21;;;;;;;29.83;17.20;;;5.70;75.10;;;;;;5138213;27;20084;-44
2022/01/28 11:59:48;;;;;;;31.15;17.65;;;5.60;74.00;;;;;;5138057;27;20080;-35
2022/01/28 12:02:15;;;;;;;37.90;18.73;;;5.60;74.10;;;;;;5137570;27;20023;-33
2022/01/28 12:04:43;;;;;;;38.35;19.30;;;5.60;74.60;;;;;;5135717;27;20064;-34
2022/01/28 12:07:18;;;;;;;35.38;17.80;;;5.60;74.60;;;;;;5138255;27;20284;-34
2022/01/28 12:09:52;;;;;;;29.50;17.17;;;5.50;74.30;;;;;;5137142;27;20050;-44
2022/01/28 12:12:41;;;;;;;30.98;17.05;;;5.50;74.10;;;;;;5137616;27;20345;-44
2022/01/28 12:17:34;;;;;;;32.15;17.08;;;5.40;74.40;;;;;;5137724;27;20092;-45
2022/01/28 12:20:15;;;;;;;38.20;18.20;;;5.40;73.70;;;;;;5137884;27;20035;-45
2022/01/28 12:22:59;;;;;;;27.85;15.52;;;5.40;74.30;;;;;;5137280;27;20414;-44
2022/01/28 12:25:46;;;;;;;29.75;16.08;;;5.40;73.60;;;;;;5137100;27;20058;-45
2022/01/28 12:28:19;;;;;;;30.25;16.20;;;5.30;73.80;;;;;;5137423;27;20059;-44
2022/01/28 12:31:02;;;;;;;28.27;16.13;;;5.30;74.00;;;;;;5137147;27;20416;-34
2022/01/28 12:33:34;;;;;;;29.55;16.70;;;5.30;73.80;;;;;;5137278;27;20038;-45
2022/01/28 12:36:06;;;;;;;28.35;16.10;;;5.20;73.80;;;;;;5136921;27;20042;-44
2022/01/28 12:38:34;;;;;;;34.65;17.50;;;5.20;73.50;;;;;;5137345;27;20019;-45
2022/01/28 12:41:07;;;;;;;35.15;16.95;;;5.20;73.50;;;;;;5137082;27;20046;-34
2022/01/28 12:43:33;;;;;;;30.25;17.63;;;5.10;73.50;;;;;;5138438;27;20026;-34
2022/01/28 12:46:08;;;;;;;28.60;16.63;;;5.10;73.60;;;;;;5156442;27;20035;-45
2022/01/28 12:48:34;;;;;;;30.15;16.80;;;5.10;73.60;;;;;;5157506;27;20113;-33
2022/01/28 12:51:02;;;;;;;29.45;17.75;;;5.10;73.80;;;;;;5157459;27;20407;-34
2022/01/28 12:53:32;;;;;;;28.80;15.55;;;5.10;73.80;;;;;;5153884;27;20091;-34
2022/01/28 12:55:59;;;;;;;29.60;18.00;;;5.10;73.90;;;;;;5144977;27;20072;-44
2022/01/28 12:58:57;;;;;;;30.75;17.33;;;5.10;73.80;;;;;;5158223;27;20076;-43
2022/01/28 13:01:23;;;;;;;25.45;15.32;;;5.20;73.50;;;;;;5100814;27;20047;-44
2022/01/28 13:04:02;;;;;;;30.40;15.70;;;5.10;73.00;;;;;;5157477;27;20027;-39
2022/01/28 13:09:18;;;;;;;28.90;15.88;;;5.10;72.70;;;;;;5157435;27;20057;-43
2022/01/28 13:11:50;;;;;;;28.38;15.85;;;5.00;72.80;;;;;;5157540;27;20118;-43
2022/01/28 13:14:33;;;;;;;35.88;16.30;;;4.90;72.80;;;;;;5156930;27;20429;-44
2022/01/28 13:17:02;;;;;;;30.10;16.98;;;4.80;73.20;;;;;;5157538;27;20047;-34
2022/01/28 13:19:28;;;;;;;30.10;16.65;;;4.80;73.50;;;;;;5157364;27;20385;-44
2022/01/28 13:21:55;;;;;;;32.13;18.50;;;4.80;73.40;;;;;;5157221;27;20334;-36
2022/01/28 13:24:26;;;;;;;34.10;18.83;;;4.90;74.30;;;;;;5157258;27;20035;-43
2022/01/28 13:27:05;;;;;;;;;;;4.90;73.60;;;;;;5158025;27;20106;-34
2022/01/28 13:29:38;;;;;;;35.55;18.67;;;4.90;73.80;;;;;;5157089;27;19967;-34
2022/01/28 13:32:10;;;;;;;34.60;18.10;;;4.90;73.60;;;;;;5157726;27;20305;-35
2022/01/28 13:34:54;;;;;;;33.78;17.90;;;4.90;73.40;;;;;;5156923;27;20042;-44
2022/01/28 13:37:57;;;;;;;30.52;15.85;;;4.90;73.40;;;;;;5157533;27;20034;-44
2022/01/28 13:40:32;;;;;;;31.63;17.33;;;4.90;73.30;;;;;;5157269;27;20114;-35
2022/01/28 13:43:14;;;;;;;30.17;17.40;;;4.90;73.50;;;;;;5138639;27;20360;-45
2022/01/28 13:45:42;;;;;;;38.55;18.88;;;4.90;73.60;;;;;;5156910;27;20125;-44
2022/01/28 13:48:38;;;;;;;38.47;19.23;;;4.90;73.60;;;;;;5157134;27;20015;-46
2022/01/28 13:51:09;;;;;;;48.80;21.98;;;4.90;73.70;;;;;;5146296;27;20151;-45
2022/01/28 13:56:43;;;;;;;41.63;21.08;;;5.00;73.80;;;;;;5156475;27;20407;-45
2022/01/28 13:59:20;;;;;;;41.05;19.27;;;5.00;73.50;;;;;;5161059;27;20049;-45
2022/01/28 14:01:49;;;;;;;37.63;18.85;;;5.00;73.30;;;;;;5161467;27;20046;-34
2022/01/28 14:04:35;;;;;;;31.52;18.10;;;5.00;73.10;;;;;;5161152;27;20034;-45
2022/01/28 14:07:29;;;;;;;32.75;17.33;;;4.90;73.10;;;;;;5161080;27;20034;-45
2022/01/28 14:09:59;;;;;;;33.22;16.45;;;4.90;73.20;;;;;;5157182;27;20074;-45
2022/01/28 14:12:31;;;;;;;29.45;17.08;;;4.90;73.20;;;;;;5161216;27;20033;-44
2022/01/28 14:15:09;;;;;;;28.25;16.20;;;4.80;73.20;;;;;;5160635;27;20039;-45
2022/01/28 14:17:35;;;;;;;33.15;18.08;;;4.80;73.30;;;;;;5160941;27;20026;-44
2022/01/28 14:20:01;;;;;;;31.58;17.50;;;4.80;73.50;;;;;;5161100;27;20050;-36
2022/01/28 14:22:27;;;;;;;29.20;15.27;;;4.80;73.60;;;;;;5160880;27;20326;-43
2022/01/28 14:24:52;;;;;;;27.77;16.35;;;4.70;73.60;;;;;;5160553;27;20034;-34
2022/01/28 14:30:17;;;;;;;32.30;17.73;;;4.70;74.00;;;;;;5160591;27;20307;-44
2022/01/28 14:32:43;;;;;;;27.10;15.82;;;4.70;74.00;;;;;;5160730;27;20026;-43
2022/01/28 14:35:09;;;;;;;25.95;15.63;;;4.70;74.10;;;;;;5160429;27;20380;-45
2022/01/28 14:37:38;;;;;;;30.33;17.20;;;4.70;74.10;;;;;;5161034;27;20097;-44